Time;durP1;ratioP1;P1;durP2;ratioP2;P2;SDS_P1;SDS_P2;PMS_P1;PMS_P2;Temp;Humidity;BMP_temperature;BMP_pressure;BME280_temperature;BME280_humidity;BME280_pressure;Samples;Min_cycle;Max_cycle;Signal;HPM_P1;HPM_P2
2024/01/24 00:01:35;;;;;;;6.50;3.22;;;12.40;99.90;;;;;;5054125;28;20044;-60
2024/01/24 00:04:01;;;;;;;4.70;2.70;;;12.70;99.90;;;;;;5071178;28;20152;-61
2024/01/24 00:06:27;;;;;;;4.00;2.70;;;12.70;99.90;;;;;;5070116;28;20050;-61
2024/01/24 00:08:55;;;;;;;3.78;2.80;;;12.60;99.90;;;;;;5071452;28;20059;-60
2024/01/24 00:11:21;;;;;;;6.25;2.35;;;12.60;99.90;;;;;;5036166;28;20063;-63
2024/01/24 00:13:47;;;;;;;4.97;2.85;;;12.90;99.90;;;;;;5051478;28;20041;-63
2024/01/24 00:16:14;;;;;;;8.68;3.65;;;12.60;99.90;;;;;;5049817;28;20350;-60
2024/01/24 00:18:40;;;;;;;4.43;2.60;;;12.70;99.90;;;;;;5051258;28;20063;-61
2024/01/24 00:21:07;;;;;;;6.07;2.67;;;12.60;99.90;;;;;;5051223;28;20057;-61
2024/01/24 00:23:33;;;;;;;4.55;2.60;;;12.60;99.90;;;;;;5069904;28;20052;-61
2024/01/24 00:25:59;;;;;;;4.45;2.60;;;12.90;99.90;;;;;;5070593;28;20044;-60
2024/01/24 00:28:26;;;;;;;4.20;2.35;;;12.80;99.90;;;;;;5070878;28;20049;-61
2024/01/24 00:30:53;;;;;;;4.60;2.38;;;12.70;99.90;;;;;;5070912;28;20088;-60
2024/01/24 00:33:20;;;;;;;5.05;2.55;;;12.60;99.90;;;;;;5054234;28;20060;-62
2024/01/24 00:35:46;;;;;;;3.90;2.33;;;13.00;99.90;;;;;;5050747;28;20048;-61
2024/01/24 00:38:13;;;;;;;4.80;2.50;;;12.80;99.90;;;;;;5050837;28;20067;-61
2024/01/24 00:40:39;;;;;;;3.67;1.95;;;13.00;99.90;;;;;;5050911;28;20072;-61
2024/01/24 00:43:05;;;;;;;5.55;2.00;;;12.90;99.90;;;;;;5065288;28;20049;-61
2024/01/24 00:45:31;;;;;;;5.85;1.98;;;13.00;99.90;;;;;;5070432;28;20044;-61
2024/01/24 00:47:58;;;;;;;4.80;2.15;;;12.90;99.90;;;;;;5070212;28;20444;-60
2024/01/24 00:50:24;;;;;;;3.35;1.88;;;12.80;99.90;;;;;;5070525;28;20479;-60
2024/01/24 00:52:52;;;;;;;3.90;2.05;;;12.80;99.90;;;;;;5057512;28;20475;-61
2024/01/24 00:55:19;;;;;;;3.83;2.10;;;13.00;99.90;;;;;;5050405;28;20451;-60
2024/01/24 00:57:45;;;;;;;2.60;1.63;;;12.80;99.90;;;;;;5050479;28;20445;-61
2024/01/24 01:00:12;;;;;;;4.95;1.90;;;12.70;99.90;;;;;;5050448;28;20532;-61
2024/01/24 01:02:38;;;;;;;4.63;1.90;;;12.90;99.90;;;;;;5061027;28;20444;-62
2024/01/24 01:05:05;;;;;;;3.28;1.80;;;12.80;99.90;;;;;;5070349;28;20057;-61
2024/01/24 01:07:31;;;;;;;2.83;1.80;;;12.50;99.90;;;;;;5070081;28;20049;-61
2024/01/24 01:09:57;;;;;;;3.05;1.60;;;12.70;99.90;;;;;;5069893;28;20067;-62
2024/01/24 01:12:24;;;;;;;2.53;1.40;;;12.70;99.90;;;;;;5061449;28;20056;-63
2024/01/24 01:14:50;;;;;;;2.42;1.45;;;12.50;99.90;;;;;;5049981;28;20107;-61
2024/01/24 01:17:16;;;;;;;4.35;1.35;;;12.90;99.90;;;;;;5050535;28;20063;-61
2024/01/24 01:19:42;;;;;;;3.47;1.35;;;12.50;99.90;;;;;;5050480;28;20040;-62
2024/01/24 01:22:09;;;;;;;2.45;1.42;;;12.80;99.90;;;;;;5056266;28;20052;-61
2024/01/24 01:24:35;;;;;;;2.65;1.50;;;12.60;99.90;;;;;;5069718;28;20056;-62
2024/01/24 01:27:02;;;;;;;2.97;1.25;;;12.80;99.90;;;;;;5070007;28;20045;-61
2024/01/24 01:29:28;;;;;;;2.17;1.20;;;12.40;99.90;;;;;;5069910;28;20118;-62
2024/01/24 01:31:54;;;;;;;2.13;1.25;;;12.70;99.90;;;;;;5064777;28;20511;-62
2024/01/24 01:34:21;;;;;;;2.80;1.30;;;12.50;99.90;;;;;;5049592;28;20048;-62
2024/01/24 01:36:47;;;;;;;2.25;1.40;;;12.80;99.90;;;;;;5049710;28;20075;-60
2024/01/24 01:39:13;;;;;;;3.50;1.45;;;12.80;99.90;;;;;;5049805;28;20053;-60
2024/01/24 01:41:48;;;;;;;2.60;1.25;;;12.80;99.90;;;;;;5050342;28;20059;-62
2024/01/24 01:44:17;;;;;;;3.78;1.60;;;12.50;99.90;;;;;;5048221;28;20060;-60
2024/01/24 01:46:47;;;;;;;4.13;1.52;;;12.50;99.90;;;;;;5048253;28;20061;-61
2024/01/24 01:49:14;;;;;;;5.60;1.63;;;12.40;99.90;;;;;;5048201;28;20045;-61
2024/01/24 01:51:41;;;;;;;3.90;1.60;;;12.70;99.90;;;;;;5051625;28;20056;-62
2024/01/24 01:54:10;;;;;;;2.17;1.50;;;12.40;99.90;;;;;;5067923;28;20098;-62
2024/01/24 01:56:36;;;;;;;4.47;2.33;;;12.70;99.90;;;;;;5068778;28;20048;-61
2024/01/24 01:59:03;;;;;;;4.82;1.55;;;12.70;99.90;;;;;;5068591;28;20460;-61
2024/01/24 02:01:29;;;;;;;5.38;1.63;;;12.70;99.90;;;;;;5068276;28;20049;-61
2024/01/24 02:03:56;;;;;;;3.90;1.60;;;12.50;99.90;;;;;;5048895;28;20114;-60
2024/01/24 02:06:23;;;;;;;4.60;1.98;;;12.50;99.90;;;;;;5014977;28;20049;-60
2024/01/24 02:08:50;;;;;;;7.38;2.28;;;12.60;99.90;;;;;;5049164;28;20068;-62
2024/01/24 02:11:17;;;;;;;6.78;2.00;;;12.30;99.90;;;;;;5047964;28;20456;-61
2024/01/24 02:13:44;;;;;;;4.75;1.77;;;12.40;99.90;;;;;;5067130;28;20370;-62
2024/01/24 02:16:13;;;;;;;7.10;2.70;;;12.30;99.90;;;;;;5068872;28;20444;-62
2024/01/24 02:18:43;;;;;;;7.35;2.88;;;12.20;99.90;;;;;;5068824;28;20544;-61
2024/01/24 02:21:09;;;;;;;8.00;2.50;;;12.20;99.90;;;;;;5068811;28;20045;-62
2024/01/24 02:23:37;;;;;;;6.78;2.63;;;12.40;99.90;;;;;;5050508;28;20060;-60
2024/01/24 02:26:04;;;;;;;8.85;2.80;;;12.30;99.90;;;;;;5047811;28;20122;-60
2024/01/24 02:28:30;;;;;;;8.57;2.65;;;11.90;99.90;;;;;;5047272;28;20476;-60
2024/01/24 02:30:56;;;;;;;6.68;2.60;;;11.80;99.90;;;;;;5049021;28;20060;-61
2024/01/24 02:33:23;;;;;;;5.10;2.05;;;12.00;99.90;;;;;;5064905;28;20147;-61
2024/01/24 02:35:49;;;;;;;7.60;2.72;;;11.90;99.90;;;;;;5068241;28;20243;-62
2024/01/24 02:38:15;;;;;;;5.80;2.67;;;11.80;99.90;;;;;;5068669;28;20158;-60
2024/01/24 02:40:42;;;;;;;7.72;2.45;;;12.00;99.90;;;;;;5068753;28;20052;-61
2024/01/24 02:43:08;;;;;;;6.32;2.03;;;11.50;99.90;;;;;;5054267;28;20362;-62
2024/01/24 02:45:34;;;;;;;6.40;2.22;;;11.70;99.90;;;;;;5047873;28;20072;-62
2024/01/24 02:48:01;;;;;;;6.38;2.25;;;12.00;99.90;;;;;;5048434;28;20045;-61
2024/01/24 02:50:27;;;;;;;8.52;2.55;;;11.70;99.90;;;;;;5048552;28;20049;-60
2024/01/24 02:52:54;;;;;;;8.63;2.20;;;11.90;99.90;;;;;;5059640;28;20052;-61
2024/01/24 02:55:20;;;;;;;10.63;2.72;;;11.60;99.90;;;;;;5068297;28;20059;-61
2024/01/24 02:57:47;;;;;;;9.93;2.55;;;11.60;99.90;;;;;;5068562;28;20106;-62
2024/01/24 03:00:13;;;;;;;11.93;3.05;;;11.50;99.90;;;;;;5068200;28;20330;-60
2024/01/24 03:02:40;;;;;;;11.50;3.00;;;11.80;99.90;;;;;;5057976;28;20359;-62
2024/01/24 03:05:08;;;;;;;9.80;2.85;;;11.60;99.90;;;;;;5047715;28;20136;-62
2024/01/24 03:07:36;;;;;;;8.77;2.17;;;11.50;99.90;;;;;;5046974;28;20072;-61
2024/01/24 03:10:02;;;;;;;8.18;2.67;;;11.70;99.90;;;;;;5047666;28;20521;-61
2024/01/24 03:12:29;;;;;;;11.45;2.20;;;11.70;99.90;;;;;;5055251;28;20127;-61
2024/01/24 03:14:55;;;;;;;12.02;2.40;;;11.60;99.90;;;;;;5068035;28;20067;-61
2024/01/24 03:17:22;;;;;;;9.65;2.53;;;11.40;99.90;;;;;;5068295;28;20056;-61
2024/01/24 03:19:48;;;;;;;11.57;2.45;;;11.50;99.90;;;;;;5068193;28;20041;-61
2024/01/24 03:22:14;;;;;;;7.88;2.13;;;11.70;99.90;;;;;;5061393;28;20052;-61
2024/01/24 03:24:40;;;;;;;7.20;2.30;;;11.40;99.90;;;;;;5047320;28;20790;-61
2024/01/24 03:27:07;;;;;;;11.73;2.35;;;11.40;99.90;;;;;;5047094;28;20045;-61
2024/01/24 03:29:33;;;;;;;10.98;2.47;;;11.40;99.90;;;;;;5048123;28;20040;-61
2024/01/24 03:31:59;;;;;;;11.13;2.45;;;11.40;99.90;;;;;;5051564;28;20384;-58
2024/01/24 03:34:30;;;;;;;10.05;2.65;;;11.30;99.90;;;;;;5067746;28;20122;-62
2024/01/24 03:36:56;;;;;;;11.70;2.92;;;11.30;99.90;;;;;;5067660;28;20340;-61
2024/01/24 03:39:22;;;;;;;8.82;2.67;;;11.20;99.90;;;;;;5068260;28;20114;-60
2024/01/24 03:41:49;;;;;;;11.85;3.53;;;11.40;99.90;;;;;;5064963;28;20061;-62
2024/01/24 03:44:15;;;;;;;8.55;2.63;;;11.40;99.90;;;;;;5047024;28;20533;-62
2024/01/24 03:46:41;;;;;;;12.85;3.13;;;11.30;99.90;;;;;;5047579;28;20052;-61
2024/01/24 03:49:08;;;;;;;15.15;3.97;;;11.30;99.90;;;;;;5047456;28;20056;-60
2024/01/24 03:51:34;;;;;;;10.93;2.83;;;11.20;99.90;;;;;;5047873;28;20049;-62
2024/01/24 03:54:00;;;;;;;14.95;3.00;;;11.30;99.90;;;;;;5066928;28;20067;-62
2024/01/24 03:56:27;;;;;;;14.32;3.60;;;11.10;99.90;;;;;;5067729;28;20055;-61
2024/01/24 03:58:53;;;;;;;12.45;2.70;;;11.30;99.90;;;;;;5067774;28;20087;-62
2024/01/24 04:01:19;;;;;;;12.45;2.70;;;11.10;99.90;;;;;;5067434;28;20040;-61
2024/01/24 04:03:45;;;;;;;14.43;4.15;;;11.30;99.90;;;;;;5047701;28;20061;-61
2024/01/24 04:06:12;;;;;;;19.27;3.53;;;11.40;99.90;;;;;;5047365;28;20475;-62
2024/01/24 04:08:38;;;;;;;14.32;4.22;;;11.20;99.90;;;;;;5047694;28;20053;-61
2024/01/24 04:11:04;;;;;;;17.55;3.38;;;11.50;99.90;;;;;;5047606;28;20068;-61
2024/01/24 04:13:31;;;;;;;17.88;3.70;;;11.50;99.90;;;;;;5063515;28;20064;-62
2024/01/24 04:15:57;;;;;;;17.25;3.83;;;11.50;99.90;;;;;;5067633;28;20059;-62
2024/01/24 04:18:23;;;;;;;14.35;3.45;;;11.30;99.90;;;;;;5067366;28;20052;-62
2024/01/24 04:20:49;;;;;;;17.23;4.18;;;11.40;99.90;;;;;;5067524;28;20425;-62
2024/01/24 04:23:16;;;;;;;16.55;4.07;;;11.50;99.90;;;;;;5052876;28;20139;-60
2024/01/24 04:25:42;;;;;;;16.85;3.88;;;11.30;99.90;;;;;;5047086;28;20140;-61
2024/01/24 04:28:11;;;;;;;13.63;4.13;;;11.50;99.90;;;;;;5047245;28;20420;-62
2024/01/24 04:30:37;;;;;;;17.27;3.90;;;11.50;99.90;;;;;;5047178;28;20052;-62
2024/01/24 04:33:04;;;;;;;13.90;3.25;;;11.30;99.90;;;;;;5058742;28;20052;-61
2024/01/24 04:35:38;;;;;;;17.38;4.30;;;11.50;99.90;;;;;;5065833;28;20487;-62
2024/01/24 04:38:05;;;;;;;15.77;4.32;;;11.60;99.90;;;;;;5069535;28;20441;-61
2024/01/24 04:40:31;;;;;;;14.80;4.10;;;11.50;99.90;;;;;;5070912;28;20488;-62
2024/01/24 04:42:58;;;;;;;13.63;4.38;;;11.60;99.90;;;;;;5058030;28;20063;-63
2024/01/24 04:45:24;;;;;;;18.65;4.00;;;11.50;99.90;;;;;;5050417;28;20481;-61
2024/01/24 04:47:51;;;;;;;20.90;4.53;;;11.40;99.90;;;;;;5050973;28;20621;-62
2024/01/24 04:50:17;;;;;;;18.88;4.40;;;11.40;99.90;;;;;;5049759;28;20067;-62
2024/01/24 04:52:46;;;;;;;15.38;4.22;;;11.40;99.90;;;;;;5060665;28;20062;-61
2024/01/24 04:55:12;;;;;;;22.58;5.30;;;11.40;99.90;;;;;;5070407;28;20059;-62
2024/01/24 04:57:39;;;;;;;32.55;7.15;;;11.50;99.90;;;;;;5070636;28;20057;-62
2024/01/24 05:00:09;;;;;;;20.95;5.30;;;11.40;99.90;;;;;;5069752;28;20396;-62
2024/01/24 05:02:36;;;;;;;17.45;4.82;;;11.50;99.90;;;;;;5062571;28;20052;-62
2024/01/24 05:05:06;;;;;;;19.95;4.25;;;11.50;99.90;;;;;;5050156;28;20056;-63
2024/01/24 05:07:34;;;;;;;18.58;5.75;;;11.50;99.90;;;;;;5049148;28;20112;-61
2024/01/24 05:10:04;;;;;;;21.33;4.75;;;11.30;99.90;;;;;;5049126;28;20072;-63
2024/01/24 05:12:31;;;;;;;20.52;5.45;;;11.30;99.90;;;;;;5056812;28;20538;-62
2024/01/24 05:14:58;;;;;;;17.73;4.13;;;11.10;99.90;;;;;;5068777;28;20072;-60
2024/01/24 05:17:24;;;;;;;19.38;5.72;;;11.10;99.90;;;;;;5071336;28;20052;-62
2024/01/24 05:19:50;;;;;;;18.45;4.05;;;11.20;99.90;;;;;;5070228;28;20055;-62
2024/01/24 05:22:18;;;;;;;24.52;5.18;;;11.10;99.90;;;;;;5062494;28;20428;-62
2024/01/24 05:24:45;;;;;;;23.60;5.03;;;11.00;99.90;;;;;;5049349;28;20063;-61
2024/01/24 05:27:12;;;;;;;21.88;5.18;;;11.00;99.90;;;;;;5050018;28;20041;-62
2024/01/24 05:29:39;;;;;;;24.45;4.93;;;11.00;99.90;;;;;;5048808;28;20074;-62
2024/01/24 05:32:06;;;;;;;19.17;4.60;;;11.00;99.90;;;;;;5053760;28;20051;-61
2024/01/24 05:34:32;;;;;;;15.68;3.97;;;10.80;99.90;;;;;;5068297;28;20136;-62
2024/01/24 05:36:59;;;;;;;18.63;4.82;;;10.80;99.90;;;;;;5069605;28;20059;-62
2024/01/24 05:39:26;;;;;;;23.13;5.68;;;10.80;99.90;;;;;;5069814;28;20052;-60
2024/01/24 05:41:52;;;;;;;23.35;4.80;;;10.70;99.90;;;;;;5065522;28;20041;-61
2024/01/24 05:44:19;;;;;;;22.60;5.05;;;10.70;99.90;;;;;;5068373;28;20173;-62
2024/01/24 05:46:45;;;;;;;23.02;5.60;;;10.70;99.90;;;;;;5068769;28;20047;-62
2024/01/24 05:49:11;;;;;;;19.17;4.47;;;10.70;99.90;;;;;;5067481;28;20056;-62
2024/01/24 05:51:37;;;;;;;23.92;5.05;;;10.60;99.90;;;;;;5068389;28;20048;-61
2024/01/24 05:54:04;;;;;;;22.75;5.35;;;10.60;99.90;;;;;;5049059;28;20055;-61
2024/01/24 05:56:31;;;;;;;28.45;5.45;;;10.70;99.90;;;;;;5049513;28;20385;-62
2024/01/24 05:58:57;;;;;;;26.25;5.85;;;10.60;99.90;;;;;;5048339;28;20140;-62
2024/01/24 06:01:23;;;;;;;24.45;5.00;;;10.60;99.90;;;;;;5049457;28;20056;-61
2024/01/24 06:03:49;;;;;;;25.25;5.57;;;10.50;99.90;;;;;;5067131;28;20480;-62
2024/01/24 06:06:16;;;;;;;23.35;5.45;;;10.50;99.90;;;;;;5069631;28;20150;-62
2024/01/24 06:08:44;;;;;;;29.42;6.60;;;10.50;99.90;;;;;;5068954;28;20071;-62
2024/01/24 06:11:11;;;;;;;25.70;6.60;;;10.60;99.90;;;;;;5063218;28;20096;-61
2024/01/24 06:13:37;;;;;;;20.33;5.70;;;10.50;99.90;;;;;;5066346;28;20060;-62
2024/01/24 06:16:04;;;;;;;22.65;5.85;;;10.50;99.90;;;;;;5066957;28;20066;-61
2024/01/24 06:18:30;;;;;;;31.40;6.38;;;10.50;99.90;;;;;;5068040;28;20044;-61
2024/01/24 06:20:56;;;;;;;25.75;6.18;;;10.60;99.90;;;;;;5066817;28;20079;-61
2024/01/24 06:23:22;;;;;;;22.77;5.78;;;10.50;99.90;;;;;;5066484;28;20451;-62
2024/01/24 06:25:49;;;;;;;23.23;5.05;;;10.50;99.90;;;;;;5068310;28;20051;-63
2024/01/24 06:28:15;;;;;;;25.75;6.43;;;10.50;99.90;;;;;;5067904;28;20099;-62
2024/01/24 06:30:41;;;;;;;28.35;5.85;;;10.50;99.90;;;;;;5067004;28;20109;-61
2024/01/24 06:33:07;;;;;;;25.60;6.55;;;10.60;99.90;;;;;;5064824;28;20100;-63
2024/01/24 06:35:34;;;;;;;27.77;5.30;;;10.50;99.90;;;;;;5067185;28;20044;-62
2024/01/24 06:38:01;;;;;;;27.33;6.35;;;10.50;99.90;;;;;;5067241;28;20052;-62
2024/01/24 06:40:27;;;;;;;28.40;5.63;;;10.60;99.90;;;;;;5048524;28;20148;-60
2024/01/24 06:42:53;;;;;;;21.13;5.15;;;10.60;99.90;;;;;;5056550;28;20056;-60
2024/01/24 06:45:20;;;;;;;22.35;5.97;;;10.70;99.90;;;;;;5048218;28;20101;-62
2024/01/24 06:47:46;;;;;;;26.23;5.28;;;10.50;99.90;;;;;;5048901;28;20390;-62
2024/01/24 06:50:13;;;;;;;22.95;5.47;;;10.60;99.90;;;;;;5048302;28;20288;-62
2024/01/24 06:52:40;;;;;;;23.17;4.80;;;10.60;99.90;;;;;;5055840;28;20070;-62
2024/01/24 06:55:08;;;;;;;24.40;5.30;;;10.60;99.90;;;;;;5067814;28;20044;-63
2024/01/24 06:57:34;;;;;;;26.77;6.57;;;10.70;99.90;;;;;;5068172;28;20053;-61
2024/01/24 07:00:04;;;;;;;30.60;7.03;;;10.70;99.90;;;;;;5068218;28;20060;-62
2024/01/24 07:02:31;;;;;;;25.85;5.68;;;10.70;99.90;;;;;;5067094;28;20056;-62
2024/01/24 07:04:57;;;;;;;25.63;6.35;;;10.50;99.90;;;;;;5067878;28;20056;-62
2024/01/24 07:07:26;;;;;;;29.35;5.95;;;10.60;99.90;;;;;;5067760;28;20056;-62
2024/01/24 07:09:52;;;;;;;35.95;7.55;;;10.60;99.90;;;;;;5067732;28;20068;-62
2024/01/24 07:12:20;;;;;;;22.17;5.45;;;10.60;99.90;;;;;;5063030;28;20036;-61
2024/01/24 07:14:50;;;;;;;29.52;6.45;;;10.50;99.90;;;;;;5046686;28;20115;-62
2024/01/24 07:17:16;;;;;;;24.38;5.60;;;10.50;99.90;;;;;;5048250;28;20124;-60
2024/01/24 07:19:44;;;;;;;34.42;6.70;;;10.70;99.90;;;;;;5047922;28;20055;-62
2024/01/24 07:22:15;;;;;;;28.98;7.00;;;10.50;99.90;;;;;;5051853;28;20044;-60
2024/01/24 07:24:45;;;;;;;32.35;6.55;;;10.70;99.90;;;;;;5067582;28;20056;-62
2024/01/24 07:27:11;;;;;;;29.20;6.22;;;10.60;99.90;;;;;;5067819;28;20059;-61
2024/01/24 07:29:38;;;;;;;30.25;6.50;;;10.50;99.90;;;;;;5068018;28;20048;-61
2024/01/24 07:32:05;;;;;;;23.20;5.65;;;10.50;99.90;;;;;;5064013;28;20048;-61
2024/01/24 07:34:31;;;;;;;28.80;6.78;;;10.50;99.90;;;;;;5047506;28;20037;-62
2024/01/24 07:36:58;;;;;;;26.13;6.32;;;10.40;99.90;;;;;;5046486;28;20045;-61
2024/01/24 07:39:25;;;;;;;26.73;7.13;;;10.30;99.90;;;;;;5048035;28;20053;-61
2024/01/24 07:41:52;;;;;;;25.13;5.95;;;10.50;99.90;;;;;;5048305;28;20071;-61
2024/01/24 07:44:18;;;;;;;20.13;5.25;;;10.50;99.90;;;;;;5067084;28;20365;-61
2024/01/24 07:46:48;;;;;;;26.38;6.72;;;10.40;99.90;;;;;;5066695;28;20479;-61
2024/01/24 07:49:16;;;;;;;23.33;5.47;;;10.40;99.90;;;;;;5067393;28;20469;-62
2024/01/24 07:51:42;;;;;;;29.08;6.35;;;10.40;99.90;;;;;;5067166;28;20338;-63
2024/01/24 07:54:08;;;;;;;26.58;6.65;;;10.30;99.90;;;;;;5046418;28;20052;-62
2024/01/24 07:56:34;;;;;;;25.55;6.20;;;10.30;99.90;;;;;;5047942;28;20450;-62
2024/01/24 07:59:01;;;;;;;26.92;6.22;;;10.20;99.90;;;;;;5047677;28;20497;-62
2024/01/24 08:01:27;;;;;;;28.98;5.90;;;10.30;99.90;;;;;;5046823;28;20060;-62
2024/01/24 08:03:53;;;;;;;30.40;6.43;;;10.40;99.90;;;;;;5065003;28;20048;-62
2024/01/24 08:06:21;;;;;;;31.38;5.97;;;10.30;99.90;;;;;;5067355;28;20505;-63
2024/01/24 08:08:48;;;;;;;26.25;6.90;;;10.30;99.90;;;;;;5067766;28;20421;-62
2024/01/24 08:11:14;;;;;;;27.67;6.55;;;10.30;99.90;;;;;;5067509;28;20380;-60
2024/01/24 08:13:41;;;;;;;26.63;5.88;;;10.30;99.90;;;;;;5054986;28;20060;-62
2024/01/24 08:16:07;;;;;;;25.70;5.85;;;10.40;99.90;;;;;;5051549;28;20052;-62
2024/01/24 08:18:34;;;;;;;26.38;7.10;;;10.40;99.90;;;;;;5051351;28;20049;-60
2024/01/24 08:21:00;;;;;;;21.60;5.22;;;10.30;99.90;;;;;;5051396;28;20056;-61
2024/01/24 08:23:26;;;;;;;27.60;6.38;;;10.30;99.90;;;;;;5064348;28;20356;-62
2024/01/24 08:25:52;;;;;;;33.20;7.63;;;10.30;99.90;;;;;;5071481;28;20492;-62
2024/01/24 08:28:19;;;;;;;37.42;8.32;;;10.20;99.90;;;;;;5071341;28;20064;-61
2024/01/24 08:30:45;;;;;;;30.13;7.15;;;10.20;99.90;;;;;;5071183;28;20040;-60
2024/01/24 08:33:11;;;;;;;32.20;6.75;;;10.20;99.90;;;;;;5059104;28;20052;-62
2024/01/24 08:35:38;;;;;;;28.65;7.47;;;10.20;99.90;;;;;;5050840;28;20492;-60
2024/01/24 08:38:04;;;;;;;31.70;7.43;;;10.20;99.90;;;;;;5050839;28;20048;-62
2024/01/24 08:40:31;;;;;;;34.70;8.07;;;10.40;99.90;;;;;;5051070;28;20105;-62
2024/01/24 08:42:57;;;;;;;29.58;6.72;;;10.40;99.90;;;;;;5059944;28;20675;-61
2024/01/24 08:45:24;;;;;;;36.08;8.38;;;10.30;99.90;;;;;;5071200;28;20048;-61
2024/01/24 08:47:50;;;;;;;24.75;5.72;;;10.30;99.90;;;;;;5070867;28;20089;-63
2024/01/24 08:50:17;;;;;;;27.95;6.68;;;10.40;99.90;;;;;;5071107;28;20045;-62
2024/01/24 08:52:43;;;;;;;32.67;6.80;;;10.50;99.90;;;;;;5062887;28;20055;-61
2024/01/24 08:55:13;;;;;;;34.10;6.80;;;10.40;99.90;;;;;;5050870;28;20269;-61
2024/01/24 08:57:41;;;;;;;25.75;6.35;;;10.30;99.90;;;;;;5050825;28;20045;-62
2024/01/24 09:00:08;;;;;;;29.88;7.07;;;10.30;99.90;;;;;;5050547;28;20049;-62
2024/01/24 09:02:35;;;;;;;22.25;5.90;;;10.40;99.90;;;;;;5056317;28;20544;-62
2024/01/24 09:05:01;;;;;;;36.47;7.22;;;10.30;99.90;;;;;;5070010;28;20110;-62
2024/01/24 09:07:27;;;;;;;31.80;7.25;;;10.40;99.90;;;;;;5070481;28;20140;-62
2024/01/24 09:09:53;;;;;;;30.85;7.30;;;10.30;99.90;;;;;;5070313;28;20060;-61
2024/01/24 09:12:20;;;;;;;28.80;5.90;;;10.30;99.90;;;;;;5066155;28;20087;-62
2024/01/24 09:14:46;;;;;;;29.58;7.13;;;10.40;99.90;;;;;;5050371;28;20049;-61
2024/01/24 09:17:12;;;;;;;33.17;7.35;;;10.50;99.90;;;;;;5050404;28;20057;-61
2024/01/24 09:19:41;;;;;;;33.38;6.80;;;10.50;99.90;;;;;;5050327;28;20067;-61
2024/01/24 09:22:11;;;;;;;27.95;6.15;;;10.50;99.90;;;;;;5052509;28;20052;-61
2024/01/24 09:24:37;;;;;;;28.38;6.63;;;10.50;99.90;;;;;;5068687;28;20044;-63
2024/01/24 09:27:04;;;;;;;28.80;5.82;;;10.50;99.90;;;;;;5070016;28;20465;-62
2024/01/24 09:29:30;;;;;;;24.85;6.53;;;10.50;99.90;;;;;;5070740;28;20161;-62
2024/01/24 09:31:57;;;;;;;24.95;6.05;;;10.50;99.90;;;;;;5067866;28;20052;-61
2024/01/24 09:34:26;;;;;;;28.35;5.55;;;10.60;99.90;;;;;;5050003;28;20053;-62
2024/01/24 09:36:56;;;;;;;33.38;8.02;;;10.50;99.90;;;;;;5050185;28;20049;-61
2024/01/24 09:39:25;;;;;;;31.00;7.25;;;10.50;99.90;;;;;;5048987;28;20063;-62
2024/01/24 09:41:51;;;;;;;28.75;6.43;;;10.50;99.90;;;;;;5050286;28;20048;-61
2024/01/24 09:44:19;;;;;;;24.15;5.93;;;10.50;99.90;;;;;;5069480;28;20060;-62
2024/01/24 09:46:49;;;;;;;24.73;6.10;;;10.40;99.90;;;;;;5069957;28;20157;-63
2024/01/24 09:49:17;;;;;;;21.80;5.55;;;10.40;99.90;;;;;;5068826;28;20045;-61
2024/01/24 09:51:46;;;;;;;23.38;5.78;;;10.40;99.90;;;;;;5069747;28;20540;-62
2024/01/24 09:54:12;;;;;;;27.10;6.07;;;10.50;99.90;;;;;;5050156;28;20075;-61
2024/01/24 09:56:39;;;;;;;29.73;6.82;;;10.60;99.90;;;;;;5050321;28;20303;-60
2024/01/24 09:59:07;;;;;;;28.50;7.63;;;10.60;99.90;;;;;;5050002;28;20048;-61
2024/01/24 10:01:35;;;;;;;24.85;5.97;;;10.50;99.90;;;;;;5049985;28;20369;-62
2024/01/24 10:04:01;;;;;;;25.02;6.53;;;10.50;99.90;;;;;;5066529;28;20044;-64
2024/01/24 10:06:29;;;;;;;28.55;6.85;;;10.60;99.90;;;;;;5069549;28;20048;-62
2024/01/24 10:08:56;;;;;;;32.35;7.03;;;10.60;99.90;;;;;;5069230;28;20071;-62
2024/01/24 10:11:24;;;;;;;37.30;9.10;;;10.60;99.90;;;;;;5069688;28;20044;-62
2024/01/24 10:13:54;;;;;;;25.48;6.57;;;10.60;99.90;;;;;;5052813;28;20453;-62
2024/01/24 10:16:20;;;;;;;34.03;8.02;;;10.70;99.90;;;;;;5049695;28;20045;-62
2024/01/24 10:18:47;;;;;;;26.05;7.57;;;10.60;99.90;;;;;;5048579;28;20056;-62
2024/01/24 10:21:14;;;;;;;27.15;6.97;;;10.70;99.90;;;;;;5049026;28;20060;-62
2024/01/24 10:23:42;;;;;;;24.05;6.95;;;10.70;99.90;;;;;;5063451;28;20401;-62
2024/01/24 10:26:09;;;;;;;29.02;7.90;;;10.60;99.90;;;;;;5069575;28;20048;-60
2024/01/24 10:28:35;;;;;;;24.35;7.75;;;10.70;99.90;;;;;;5069136;28;20052;-62
2024/01/24 10:31:03;;;;;;;25.48;6.40;;;10.70;99.90;;;;;;5069312;28;20042;-62
2024/01/24 10:33:32;;;;;;;32.17;7.25;;;10.70;99.90;;;;;;5055543;28;20076;-62
2024/01/24 10:35:59;;;;;;;29.30;6.30;;;10.70;99.90;;;;;;5048893;28;20445;-62
2024/01/24 10:38:30;;;;;;;25.70;6.20;;;10.70;99.90;;;;;;5048756;28;20064;-61
2024/01/24 10:40:59;;;;;;;24.02;5.70;;;10.70;99.90;;;;;;5049063;28;20056;-62
2024/01/24 10:43:26;;;;;;;29.92;5.95;;;10.70;99.90;;;;;;5060715;28;20060;-60
2024/01/24 10:45:54;;;;;;;27.90;6.32;;;10.80;99.90;;;;;;5067653;28;20053;-61
2024/01/24 10:48:20;;;;;;;27.30;5.75;;;10.70;99.90;;;;;;5068785;28;20084;-62
2024/01/24 10:50:48;;;;;;;27.52;6.50;;;10.70;99.90;;;;;;5067384;28;20394;-63
2024/01/24 10:53:14;;;;;;;29.13;7.03;;;10.60;99.90;;;;;;5057350;28;20045;-62
2024/01/24 10:55:41;;;;;;;23.80;5.35;;;10.70;99.90;;;;;;5049012;28;20108;-62
2024/01/24 10:58:11;;;;;;;27.50;6.03;;;10.70;99.90;;;;;;5048802;28;20056;-61
2024/01/24 11:00:39;;;;;;;26.05;6.45;;;10.70;99.90;;;;;;5049021;28;20132;-61
2024/01/24 11:03:06;;;;;;;22.50;6.20;;;10.70;99.90;;;;;;5056638;28;20473;-62
2024/01/24 11:05:48;;;;;;;26.05;6.50;;;10.70;99.90;;;;;;5068653;28;20055;-61
2024/01/24 11:09:01;;;;;;;25.85;5.82;;;10.70;99.90;;;;;;5068194;28;20062;-63
2024/01/24 11:11:31;;;;;;;23.17;5.35;;;10.70;99.90;;;;;;5065776;28;20052;-62
2024/01/24 11:14:01;;;;;;;27.10;6.05;;;10.70;99.90;;;;;;5050748;28;20060;-62
2024/01/24 11:16:30;;;;;;;21.25;5.70;;;10.70;99.90;;;;;;5048275;28;20223;-60
2024/01/24 11:19:20;;;;;;;21.92;5.78;;;10.70;99.90;;;;;;5048818;28;20053;-61
2024/01/24 11:21:47;;;;;;;22.92;5.60;;;10.70;99.90;;;;;;5048358;28;20053;-62
2024/01/24 11:24:39;;;;;;;18.48;5.32;;;10.80;99.90;;;;;;5066491;28;20052;-62
2024/01/24 11:27:35;;;;;;;22.27;5.30;;;10.70;99.90;;;;;;5067959;28;20052;-61
2024/01/24 11:30:16;;;;;;;25.42;4.60;;;10.70;99.90;;;;;;5068074;28;20049;-61
2024/01/24 11:32:50;;;;;;;23.52;6.18;;;10.70;99.90;;;;;;5061427;28;20045;-62
2024/01/24 11:35:33;;;;;;;18.33;4.20;;;10.70;99.90;;;;;;5048235;28;20048;-61
2024/01/24 11:38:01;;;;;;;22.60;5.05;;;10.70;99.90;;;;;;5047922;28;20053;-62
2024/01/24 11:40:27;;;;;;;22.10;5.28;;;10.70;99.90;;;;;;5047951;28;20102;-64
2024/01/24 11:42:57;;;;;;;25.40;4.68;;;10.70;99.90;;;;;;5054982;28;20464;-62
2024/01/24 11:45:25;;;;;;;23.73;5.35;;;10.70;99.90;;;;;;5067640;28;20489;-62
2024/01/24 11:47:54;;;;;;;16.05;3.90;;;10.70;99.90;;;;;;5066776;28;20381;-61
2024/01/24 11:50:21;;;;;;;21.70;4.97;;;10.70;99.90;;;;;;5067534;28;20048;-62
2024/01/24 11:52:47;;;;;;;21.40;5.20;;;10.70;99.90;;;;;;5060842;28;20041;-62
2024/01/24 11:55:13;;;;;;;19.90;4.97;;;10.70;99.90;;;;;;5048154;28;20049;-61
2024/01/24 11:57:40;;;;;;;20.85;4.47;;;10.70;99.90;;;;;;5047963;28;20151;-63
2024/01/24 12:00:09;;;;;;;22.30;4.53;;;10.70;99.90;;;;;;5048070;28;20056;-62
2024/01/24 12:02:36;;;;;;;20.92;4.68;;;10.70;99.90;;;;;;5052700;28;20063;-62
2024/01/24 12:05:04;;;;;;;24.83;7.18;;;10.70;99.90;;;;;;5066409;28;20048;-63
2024/01/24 12:07:30;;;;;;;34.80;6.32;;;10.70;99.90;;;;;;5067890;28;20429;-61
2024/01/24 12:09:56;;;;;;;21.52;5.10;;;10.70;99.90;;;;;;5067873;28;20052;-62
2024/01/24 12:12:23;;;;;;;22.83;5.97;;;10.70;99.90;;;;;;5064890;28;20049;-62
2024/01/24 12:14:50;;;;;;;29.67;5.20;;;10.60;99.90;;;;;;5046817;28;20057;-63
2024/01/24 12:17:16;;;;;;;25.83;5.25;;;10.70;99.90;;;;;;5047882;28;20468;-61
2024/01/24 12:19:45;;;;;;;24.40;5.53;;;10.60;99.90;;;;;;5047932;28;20418;-61
2024/01/24 12:22:12;;;;;;;20.42;5.13;;;10.60;99.90;;;;;;5049183;28;20041;-61
2024/01/24 12:24:40;;;;;;;24.77;5.28;;;10.50;99.90;;;;;;5067500;28;20052;-61
2024/01/24 12:27:07;;;;;;;25.02;5.35;;;10.40;99.90;;;;;;5067872;28;20107;-62
2024/01/24 12:29:34;;;;;;;21.30;4.38;;;10.40;99.90;;;;;;5068107;28;20052;-62
2024/01/24 12:32:02;;;;;;;24.98;5.15;;;10.40;99.90;;;;;;5067194;28;20052;-63
2024/01/24 12:34:29;;;;;;;19.50;4.75;;;10.40;99.90;;;;;;5047329;28;20321;-61
2024/01/24 12:37:00;;;;;;;21.20;5.40;;;10.40;99.90;;;;;;5047778;28;20049;-62
2024/01/24 12:39:33;;;;;;;24.20;5.07;;;10.40;99.90;;;;;;5047410;28;20053;-62
2024/01/24 12:42:03;;;;;;;21.70;4.97;;;10.40;99.90;;;;;;5047611;28;20094;-61